sensor_id;sensor_type;location;lat;lon;timestamp;temperature;humidity
18335;DHT22;9293;49.524;10.964;2022-10-16T00:01:43;15.20;99.90
18335;DHT22;9293;49.524;10.964;2022-10-16T00:04:11;15.20;99.90
18335;DHT22;9293;49.524;10.964;2022-10-16T00:06:44;15.10;99.90
18335;DHT22;9293;49.524;10.964;2022-10-16T00:09:12;15.10;99.90
18335;DHT22;9293;49.524;10.964;2022-10-16T00:11:43;15.10;99.90
18335;DHT22;9293;49.524;10.964;2022-10-16T00:14:14;15.10;99.90
18335;DHT22;9293;49.524;10.964;2022-10-16T00:16:42;15.10;99.90
18335;DHT22;9293;49.524;10.964;2022-10-16T00:19:11;15.10;99.90
18335;DHT22;9293;49.524;10.964;2022-10-16T00:21:39;15.10;99.90
18335;DHT22;9293;49.524;10.964;2022-10-16T00:24:09;15.10;99.90
18335;DHT22;9293;49.524;10.964;2022-10-16T00:26:38;15.10;99.90
18335;DHT22;9293;49.524;10.964;2022-10-16T00:29:07;15.10;99.90
18335;DHT22;9293;49.524;10.964;2022-10-16T00:31:35;15.10;99.90
18335;DHT22;9293;49.524;10.964;2022-10-16T00:34:04;15.10;99.90
18335;DHT22;9293;49.524;10.964;2022-10-16T00:36:32;15.00;99.90
18335;DHT22;9293;49.524;10.964;2022-10-16T00:39:01;15.00;99.90
18335;DHT22;9293;49.524;10.964;2022-10-16T00:41:30;15.00;99.90
18335;DHT22;9293;49.524;10.964;2022-10-16T00:44:01;15.00;99.90
18335;DHT22;9293;49.524;10.964;2022-10-16T00:46:41;14.90;99.90
18335;DHT22;9293;49.524;10.964;2022-10-16T00:49:15;15.00;99.90
18335;DHT22;9293;49.524;10.964;2022-10-16T00:51:47;15.00;99.90
18335;DHT22;9293;49.524;10.964;2022-10-16T00:54:24;15.00;99.90
18335;DHT22;9293;49.524;10.964;2022-10-16T00:56:57;15.00;99.90
18335;DHT22;9293;49.524;10.964;2022-10-16T00:59:35;15.00;99.90
18335;DHT22;9293;49.524;10.964;2022-10-16T01:02:06;15.00;99.90
18335;DHT22;9293;49.524;10.964;2022-10-16T01:04:38;15.10;99.90
18335;DHT22;9293;49.524;10.964;2022-10-16T01:15:36;15.10;99.90
18335;DHT22;9293;49.524;10.964;2022-10-16T01:21:10;15.10;99.90
18335;DHT22;9293;49.524;10.964;2022-10-16T01:30:06;15.00;99.90
18335;DHT22;9293;49.524;10.964;2022-10-16T01:32:08;15.00;99.90
18335;DHT22;9293;49.524;10.964;2022-10-16T01:34:44;15.00;99.90
18335;DHT22;9293;49.524;10.964;2022-10-16T01:37:20;15.00;99.90
18335;DHT22;9293;49.524;10.964;2022-10-16T01:39:57;15.00;99.90
18335;DHT22;9293;49.524;10.964;2022-10-16T01:42:31;15.00;99.90
18335;DHT22;9293;49.524;10.964;2022-10-16T01:45:02;15.00;99.90
18335;DHT22;9293;49.524;10.964;2022-10-16T01:47:34;15.00;99.90
18335;DHT22;9293;49.524;10.964;2022-10-16T01:50:04;15.00;99.90
18335;DHT22;9293;49.524;10.964;2022-10-16T01:52:35;15.00;99.90
18335;DHT22;9293;49.524;10.964;2022-10-16T01:55:06;15.00;99.90
18335;DHT22;9293;49.524;10.964;2022-10-16T01:57:39;15.10;99.90
18335;DHT22;9293;49.524;10.964;2022-10-16T02:00:11;15.00;99.90
18335;DHT22;9293;49.524;10.964;2022-10-16T02:02:41;15.00;99.90
18335;DHT22;9293;49.524;10.964;2022-10-16T02:05:20;15.00;99.90
18335;DHT22;9293;49.524;10.964;2022-10-16T02:07:52;15.00;99.90
18335;DHT22;9293;49.524;10.964;2022-10-16T02:10:21;15.00;99.90
18335;DHT22;9293;49.524;10.964;2022-10-16T02:13:00;15.10;99.90
18335;DHT22;9293;49.524;10.964;2022-10-16T02:15:30;15.10;99.90
18335;DHT22;9293;49.524;10.964;2022-10-16T02:17:59;15.10;99.90
18335;DHT22;9293;49.524;10.964;2022-10-16T02:20:35;15.10;99.90
18335;DHT22;9293;49.524;10.964;2022-10-16T02:23:04;15.10;99.90
18335;DHT22;9293;49.524;10.964;2022-10-16T02:25:37;15.10;99.90
18335;DHT22;9293;49.524;10.964;2022-10-16T02:28:21;15.10;99.90
18335;DHT22;9293;49.524;10.964;2022-10-16T02:30:57;15.10;99.90
18335;DHT22;9293;49.524;10.964;2022-10-16T02:33:27;15.10;99.90
18335;DHT22;9293;49.524;10.964;2022-10-16T02:35:57;15.10;99.90
18335;DHT22;9293;49.524;10.964;2022-10-16T02:38:26;15.10;99.90
18335;DHT22;9293;49.524;10.964;2022-10-16T02:40:54;15.10;99.90
18335;DHT22;9293;49.524;10.964;2022-10-16T02:43:22;15.10;99.90
18335;DHT22;9293;49.524;10.964;2022-10-16T02:45:52;15.10;99.90
18335;DHT22;9293;49.524;10.964;2022-10-16T02:48:20;15.10;99.90
18335;DHT22;9293;49.524;10.964;2022-10-16T02:50:51;15.10;99.90
18335;DHT22;9293;49.524;10.964;2022-10-16T02:53:19;15.10;99.90
18335;DHT22;9293;49.524;10.964;2022-10-16T02:55:51;15.10;99.90
18335;DHT22;9293;49.524;10.964;2022-10-16T02:58:19;15.10;99.90
18335;DHT22;9293;49.524;10.964;2022-10-16T03:00:47;15.10;99.90
18335;DHT22;9293;49.524;10.964;2022-10-16T03:03:15;15.10;99.90
18335;DHT22;9293;49.524;10.964;2022-10-16T03:05:44;15.10;99.90
18335;DHT22;9293;49.524;10.964;2022-10-16T03:08:13;15.10;99.90
18335;DHT22;9293;49.524;10.964;2022-10-16T03:10:41;15.10;99.90
18335;DHT22;9293;49.524;10.964;2022-10-16T03:13:09;15.10;99.90
18335;DHT22;9293;49.524;10.964;2022-10-16T03:15:37;15.10;99.90
18335;DHT22;9293;49.524;10.964;2022-10-16T03:18:05;15.10;99.90
18335;DHT22;9293;49.524;10.964;2022-10-16T03:20:33;15.10;99.90
18335;DHT22;9293;49.524;10.964;2022-10-16T03:23:01;15.10;99.90
18335;DHT22;9293;49.524;10.964;2022-10-16T03:25:31;15.10;99.90
18335;DHT22;9293;49.524;10.964;2022-10-16T03:28:00;15.10;99.90
18335;DHT22;9293;49.524;10.964;2022-10-16T03:30:29;15.10;99.90
18335;DHT22;9293;49.524;10.964;2022-10-16T03:32:57;15.00;99.90
18335;DHT22;9293;49.524;10.964;2022-10-16T03:35:25;15.00;99.90
18335;DHT22;9293;49.524;10.964;2022-10-16T03:37:53;15.00;99.90
18335;DHT22;9293;49.524;10.964;2022-10-16T03:40:21;15.10;99.90
18335;DHT22;9293;49.524;10.964;2022-10-16T03:42:49;15.00;99.90
18335;DHT22;9293;49.524;10.964;2022-10-16T03:45:17;15.00;99.90
18335;DHT22;9293;49.524;10.964;2022-10-16T03:47:44;15.00;99.90
18335;DHT22;9293;49.524;10.964;2022-10-16T03:50:12;15.00;99.90
18335;DHT22;9293;49.524;10.964;2022-10-16T03:52:40;15.00;99.90
18335;DHT22;9293;49.524;10.964;2022-10-16T03:55:08;14.90;99.90
18335;DHT22;9293;49.524;10.964;2022-10-16T03:57:36;14.90;99.90
18335;DHT22;9293;49.524;10.964;2022-10-16T04:00:05;14.90;99.90
18335;DHT22;9293;49.524;10.964;2022-10-16T04:02:37;14.90;99.90
18335;DHT22;9293;49.524;10.964;2022-10-16T04:05:06;14.90;99.90
18335;DHT22;9293;49.524;10.964;2022-10-16T04:07:34;14.90;99.90
18335;DHT22;9293;49.524;10.964;2022-10-16T04:10:05;14.90;99.90
18335;DHT22;9293;49.524;10.964;2022-10-16T04:12:33;14.90;99.90
18335;DHT22;9293;49.524;10.964;2022-10-16T04:15:01;14.90;99.90
18335;DHT22;9293;49.524;10.964;2022-10-16T04:17:29;14.90;99.90
18335;DHT22;9293;49.524;10.964;2022-10-16T04:19:57;14.90;99.90
18335;DHT22;9293;49.524;10.964;2022-10-16T04:22:25;14.90;99.90
18335;DHT22;9293;49.524;10.964;2022-10-16T04:24:58;15.00;99.90
18335;DHT22;9293;49.524;10.964;2022-10-16T04:27:26;15.00;99.90
18335;DHT22;9293;49.524;10.964;2022-10-16T04:29:54;15.00;99.90
18335;DHT22;9293;49.524;10.964;2022-10-16T04:32:22;15.00;99.90
18335;DHT22;9293;49.524;10.964;2022-10-16T04:34:50;15.00;99.90
18335;DHT22;9293;49.524;10.964;2022-10-16T04:37:19;15.00;99.90
18335;DHT22;9293;49.524;10.964;2022-10-16T04:39:51;15.00;99.90
18335;DHT22;9293;49.524;10.964;2022-10-16T04:42:23;15.00;99.90
18335;DHT22;9293;49.524;10.964;2022-10-16T04:44:55;15.00;99.90
18335;DHT22;9293;49.524;10.964;2022-10-16T04:47:23;15.00;99.90
18335;DHT22;9293;49.524;10.964;2022-10-16T04:49:51;15.00;99.90
18335;DHT22;9293;49.524;10.964;2022-10-16T04:52:19;15.00;99.90
18335;DHT22;9293;49.524;10.964;2022-10-16T04:54:49;15.00;99.90
18335;DHT22;9293;49.524;10.964;2022-10-16T04:57:18;14.90;99.90
18335;DHT22;9293;49.524;10.964;2022-10-16T04:59:46;14.90;99.90
18335;DHT22;9293;49.524;10.964;2022-10-16T05:02:15;15.00;99.90
18335;DHT22;9293;49.524;10.964;2022-10-16T05:04:42;14.90;99.90
18335;DHT22;9293;49.524;10.964;2022-10-16T05:07:10;14.90;99.90
18335;DHT22;9293;49.524;10.964;2022-10-16T05:09:38;14.90;99.90
18335;DHT22;9293;49.524;10.964;2022-10-16T05:12:06;14.90;99.90
18335;DHT22;9293;49.524;10.964;2022-10-16T05:14:34;14.90;99.90
18335;DHT22;9293;49.524;10.964;2022-10-16T05:17:02;14.90;99.90
18335;DHT22;9293;49.524;10.964;2022-10-16T05:19:30;14.80;99.90
18335;DHT22;9293;49.524;10.964;2022-10-16T05:21:58;14.80;99.90
18335;DHT22;9293;49.524;10.964;2022-10-16T05:24:27;14.70;99.90
18335;DHT22;9293;49.524;10.964;2022-10-16T05:26:55;14.70;99.90
18335;DHT22;9293;49.524;10.964;2022-10-16T05:29:23;14.70;99.90
18335;DHT22;9293;49.524;10.964;2022-10-16T05:31:53;14.60;99.90
18335;DHT22;9293;49.524;10.964;2022-10-16T05:34:21;14.60;99.90
18335;DHT22;9293;49.524;10.964;2022-10-16T05:36:49;14.60;99.90
18335;DHT22;9293;49.524;10.964;2022-10-16T05:39:17;14.60;99.90
18335;DHT22;9293;49.524;10.964;2022-10-16T05:41:46;14.60;99.90
18335;DHT22;9293;49.524;10.964;2022-10-16T05:44:14;14.60;99.90
18335;DHT22;9293;49.524;10.964;2022-10-16T05:46:42;14.70;99.90
18335;DHT22;9293;49.524;10.964;2022-10-16T05:49:10;14.70;99.90
18335;DHT22;9293;49.524;10.964;2022-10-16T05:51:38;14.80;99.90
18335;DHT22;9293;49.524;10.964;2022-10-16T05:54:06;14.80;99.90
18335;DHT22;9293;49.524;10.964;2022-10-16T05:56:33;14.80;99.90
18335;DHT22;9293;49.524;10.964;2022-10-16T05:59:03;14.80;99.90
18335;DHT22;9293;49.524;10.964;2022-10-16T06:01:32;14.80;99.90
18335;DHT22;9293;49.524;10.964;2022-10-16T06:04:00;14.80;99.90
18335;DHT22;9293;49.524;10.964;2022-10-16T06:06:29;14.80;99.90
18335;DHT22;9293;49.524;10.964;2022-10-16T06:08:57;14.90;99.90
18335;DHT22;9293;49.524;10.964;2022-10-16T06:11:29;14.90;99.90
18335;DHT22;9293;49.524;10.964;2022-10-16T06:14:00;14.90;99.90
18335;DHT22;9293;49.524;10.964;2022-10-16T06:16:30;14.90;99.90
18335;DHT22;9293;49.524;10.964;2022-10-16T06:18:58;14.90;99.90
18335;DHT22;9293;49.524;10.964;2022-10-16T06:21:28;14.90;99.90
18335;DHT22;9293;49.524;10.964;2022-10-16T06:23:57;14.90;99.90
18335;DHT22;9293;49.524;10.964;2022-10-16T06:26:27;14.90;99.90
18335;DHT22;9293;49.524;10.964;2022-10-16T06:29:00;14.90;99.90
18335;DHT22;9293;49.524;10.964;2022-10-16T06:31:28;15.00;99.90
18335;DHT22;9293;49.524;10.964;2022-10-16T06:33:59;15.00;99.90
18335;DHT22;9293;49.524;10.964;2022-10-16T06:36:27;15.00;99.90
18335;DHT22;9293;49.524;10.964;2022-10-16T06:38:57;15.00;99.90
18335;DHT22;9293;49.524;10.964;2022-10-16T06:41:25;15.10;99.90
18335;DHT22;9293;49.524;10.964;2022-10-16T06:43:53;15.20;99.90
18335;DHT22;9293;49.524;10.964;2022-10-16T06:46:23;15.20;99.90
18335;DHT22;9293;49.524;10.964;2022-10-16T06:48:52;15.20;99.90
18335;DHT22;9293;49.524;10.964;2022-10-16T06:51:22;15.20;99.90
18335;DHT22;9293;49.524;10.964;2022-10-16T06:53:53;15.20;99.90
18335;DHT22;9293;49.524;10.964;2022-10-16T06:56:31;15.30;99.90
18335;DHT22;9293;49.524;10.964;2022-10-16T06:58:59;15.30;99.90
18335;DHT22;9293;49.524;10.964;2022-10-16T07:01:28;15.30;99.90
18335;DHT22;9293;49.524;10.964;2022-10-16T07:03:57;15.20;99.90
18335;DHT22;9293;49.524;10.964;2022-10-16T07:06:26;15.30;99.90
18335;DHT22;9293;49.524;10.964;2022-10-16T07:08:55;15.30;99.90
18335;DHT22;9293;49.524;10.964;2022-10-16T07:11:23;15.30;99.90
18335;DHT22;9293;49.524;10.964;2022-10-16T07:13:52;15.20;99.90
18335;DHT22;9293;49.524;10.964;2022-10-16T07:16:27;15.30;99.90
18335;DHT22;9293;49.524;10.964;2022-10-16T07:18:56;15.30;99.90
18335;DHT22;9293;49.524;10.964;2022-10-16T07:21:33;15.30;99.90
18335;DHT22;9293;49.524;10.964;2022-10-16T07:24:11;15.30;99.90
18335;DHT22;9293;49.524;10.964;2022-10-16T07:26:44;15.40;99.90
18335;DHT22;9293;49.524;10.964;2022-10-16T07:29:18;15.40;99.90
18335;DHT22;9293;49.524;10.964;2022-10-16T07:31:47;15.50;99.90
18335;DHT22;9293;49.524;10.964;2022-10-16T07:34:17;15.50;99.90
18335;DHT22;9293;49.524;10.964;2022-10-16T07:36:48;15.50;99.90
18335;DHT22;9293;49.524;10.964;2022-10-16T07:39:18;15.50;99.90
18335;DHT22;9293;49.524;10.964;2022-10-16T07:41:46;15.50;99.90
18335;DHT22;9293;49.524;10.964;2022-10-16T07:44:15;15.50;99.90
18335;DHT22;9293;49.524;10.964;2022-10-16T07:46:43;15.50;99.90
18335;DHT22;9293;49.524;10.964;2022-10-16T07:49:11;15.60;99.90
18335;DHT22;9293;49.524;10.964;2022-10-16T07:51:39;15.60;99.90
18335;DHT22;9293;49.524;10.964;2022-10-16T07:54:08;15.60;99.90
18335;DHT22;9293;49.524;10.964;2022-10-16T07:56:37;15.70;99.90
18335;DHT22;9293;49.524;10.964;2022-10-16T07:59:10;15.80;99.90
18335;DHT22;9293;49.524;10.964;2022-10-16T08:01:40;15.90;99.90
18335;DHT22;9293;49.524;10.964;2022-10-16T08:04:10;15.90;99.90
18335;DHT22;9293;49.524;10.964;2022-10-16T08:06:39;16.00;99.90
18335;DHT22;9293;49.524;10.964;2022-10-16T08:09:11;16.00;99.90
18335;DHT22;9293;49.524;10.964;2022-10-16T08:11:41;16.00;99.90
18335;DHT22;9293;49.524;10.964;2022-10-16T08:14:12;16.00;99.90
18335;DHT22;9293;49.524;10.964;2022-10-16T08:16:56;16.00;99.90
18335;DHT22;9293;49.524;10.964;2022-10-16T08:19:24;16.00;99.90
18335;DHT22;9293;49.524;10.964;2022-10-16T08:21:52;16.10;99.90
18335;DHT22;9293;49.524;10.964;2022-10-16T08:24:22;16.10;99.90
18335;DHT22;9293;49.524;10.964;2022-10-16T08:26:53;16.20;99.90
18335;DHT22;9293;49.524;10.964;2022-10-16T08:29:21;16.30;99.90
18335;DHT22;9293;49.524;10.964;2022-10-16T08:31:52;16.40;99.90
18335;DHT22;9293;49.524;10.964;2022-10-16T08:34:20;16.60;99.90
18335;DHT22;9293;49.524;10.964;2022-10-16T08:36:48;16.80;99.90
18335;DHT22;9293;49.524;10.964;2022-10-16T08:39:16;17.20;99.90
18335;DHT22;9293;49.524;10.964;2022-10-16T08:50:24;18.00;99.90
18335;DHT22;9293;49.524;10.964;2022-10-16T08:52:56;17.90;99.90
18335;DHT22;9293;49.524;10.964;2022-10-16T08:57:56;17.80;99.90
18335;DHT22;9293;49.524;10.964;2022-10-16T09:00:25;18.10;99.90
18335;DHT22;9293;49.524;10.964;2022-10-16T09:03:04;18.20;99.90
18335;DHT22;9293;49.524;10.964;2022-10-16T09:11:26;18.30;99.90
18335;DHT22;9293;49.524;10.964;2022-10-16T09:17:03;18.10;99.90
18335;DHT22;9293;49.524;10.964;2022-10-16T09:20:48;18.00;99.90
18335;DHT22;9293;49.524;10.964;2022-10-16T09:25:45;17.80;99.90
18335;DHT22;9293;49.524;10.964;2022-10-16T09:28:18;17.80;99.90
18335;DHT22;9293;49.524;10.964;2022-10-16T09:30:47;17.80;99.90
18335;DHT22;9293;49.524;10.964;2022-10-16T09:33:19;17.70;99.90
18335;DHT22;9293;49.524;10.964;2022-10-16T09:35:53;17.60;99.90
18335;DHT22;9293;49.524;10.964;2022-10-16T09:38:41;17.60;99.90
18335;DHT22;9293;49.524;10.964;2022-10-16T09:41:17;17.60;99.90
18335;DHT22;9293;49.524;10.964;2022-10-16T09:44:00;17.50;99.90
18335;DHT22;9293;49.524;10.964;2022-10-16T09:46:38;17.40;99.90
18335;DHT22;9293;49.524;10.964;2022-10-16T09:49:26;17.50;99.90
18335;DHT22;9293;49.524;10.964;2022-10-16T09:52:12;17.60;99.90
18335;DHT22;9293;49.524;10.964;2022-10-16T09:54:58;17.60;99.90
18335;DHT22;9293;49.524;10.964;2022-10-16T09:57:26;17.60;99.90
18335;DHT22;9293;49.524;10.964;2022-10-16T09:59:57;17.60;99.90
18335;DHT22;9293;49.524;10.964;2022-10-16T10:02:34;17.60;99.90
18335;DHT22;9293;49.524;10.964;2022-10-16T10:05:04;17.70;99.90
18335;DHT22;9293;49.524;10.964;2022-10-16T10:07:43;17.70;99.90
18335;DHT22;9293;49.524;10.964;2022-10-16T10:10:24;17.80;99.90
18335;DHT22;9293;49.524;10.964;2022-10-16T10:12:54;17.90;99.90
18335;DHT22;9293;49.524;10.964;2022-10-16T10:15:24;18.10;99.90
18335;DHT22;9293;49.524;10.964;2022-10-16T10:17:55;18.20;99.90
18335;DHT22;9293;49.524;10.964;2022-10-16T10:20:32;18.40;99.90
18335;DHT22;9293;49.524;10.964;2022-10-16T10:23:21;18.60;99.90
18335;DHT22;9293;49.524;10.964;2022-10-16T10:26:18;18.70;99.90
18335;DHT22;9293;49.524;10.964;2022-10-16T10:29:04;18.70;99.90
18335;DHT22;9293;49.524;10.964;2022-10-16T10:31:47;18.70;99.90
18335;DHT22;9293;49.524;10.964;2022-10-16T10:37:21;18.80;99.90
18335;DHT22;9293;49.524;10.964;2022-10-16T10:40:07;18.90;99.90
18335;DHT22;9293;49.524;10.964;2022-10-16T10:42:42;18.90;99.90
18335;DHT22;9293;49.524;10.964;2022-10-16T10:45:24;18.90;99.90
18335;DHT22;9293;49.524;10.964;2022-10-16T10:51:14;18.90;99.90
18335;DHT22;9293;49.524;10.964;2022-10-16T10:53:59;19.00;99.90
18335;DHT22;9293;49.524;10.964;2022-10-16T10:57:38;19.00;99.90
18335;DHT22;9293;49.524;10.964;2022-10-16T11:10:57;19.30;99.90
18335;DHT22;9293;49.524;10.964;2022-10-16T11:13:55;19.30;99.90
18335;DHT22;9293;49.524;10.964;2022-10-16T11:16:34;19.30;99.90
18335;DHT22;9293;49.524;10.964;2022-10-16T11:19:14;19.30;99.90
18335;DHT22;9293;49.524;10.964;2022-10-16T11:22:06;19.40;99.90
18335;DHT22;9293;49.524;10.964;2022-10-16T11:24:53;19.40;99.90
18335;DHT22;9293;49.524;10.964;2022-10-16T11:27:49;19.50;99.90
18335;DHT22;9293;49.524;10.964;2022-10-16T11:30:27;19.60;99.90
18335;DHT22;9293;49.524;10.964;2022-10-16T11:36:08;19.90;99.90
18335;DHT22;9293;49.524;10.964;2022-10-16T11:38:52;20.00;99.90
18335;DHT22;9293;49.524;10.964;2022-10-16T11:46:58;21.10;99.90
18335;DHT22;9293;49.524;10.964;2022-10-16T11:55:45;21.70;99.90
18335;DHT22;9293;49.524;10.964;2022-10-16T12:01:03;22.10;99.90
18335;DHT22;9293;49.524;10.964;2022-10-16T12:03:43;22.70;99.90
18335;DHT22;9293;49.524;10.964;2022-10-16T12:06:44;23.10;99.90
18335;DHT22;9293;49.524;10.964;2022-10-16T12:09:26;23.40;99.90
18335;DHT22;9293;49.524;10.964;2022-10-16T12:12:03;23.70;99.90
18335;DHT22;9293;49.524;10.964;2022-10-16T12:23:38;25.70;99.90
18335;DHT22;9293;49.524;10.964;2022-10-16T12:25:40;25.40;99.90
18335;DHT22;9293;49.524;10.964;2022-10-16T12:28:20;25.30;99.90
18335;DHT22;9293;49.524;10.964;2022-10-16T12:31:00;25.40;99.90
18335;DHT22;9293;49.524;10.964;2022-10-16T12:33:40;25.70;99.90
18335;DHT22;9293;49.524;10.964;2022-10-16T12:36:33;26.20;99.90
18335;DHT22;9293;49.524;10.964;2022-10-16T12:39:02;26.30;99.90
18335;DHT22;9293;49.524;10.964;2022-10-16T12:41:32;26.60;99.90
18335;DHT22;9293;49.524;10.964;2022-10-16T12:44:01;26.20;99.90
18335;DHT22;9293;49.524;10.964;2022-10-16T12:51:56;24.20;99.90
18335;DHT22;9293;49.524;10.964;2022-10-16T13:02:53;23.00;99.90
18335;DHT22;9293;49.524;10.964;2022-10-16T13:11:08;22.90;99.90
18335;DHT22;9293;49.524;10.964;2022-10-16T13:28:19;25.10;99.90
18335;DHT22;9293;49.524;10.964;2022-10-16T13:30:58;25.30;99.90
18335;DHT22;9293;49.524;10.964;2022-10-16T13:33:33;25.60;99.90
18335;DHT22;9293;49.524;10.964;2022-10-16T13:36:01;25.60;99.90
18335;DHT22;9293;49.524;10.964;2022-10-16T13:38:32;25.10;99.90
18335;DHT22;9293;49.524;10.964;2022-10-16T13:41:15;24.50;99.90
18335;DHT22;9293;49.524;10.964;2022-10-16T13:43:50;24.20;99.90
18335;DHT22;9293;49.524;10.964;2022-10-16T13:46:22;24.30;99.90
18335;DHT22;9293;49.524;10.964;2022-10-16T13:49:02;24.90;99.90
18335;DHT22;9293;49.524;10.964;2022-10-16T13:51:31;25.70;99.90
18335;DHT22;9293;49.524;10.964;2022-10-16T13:54:00;26.50;99.90
18335;DHT22;9293;49.524;10.964;2022-10-16T13:56:30;27.30;99.90
18335;DHT22;9293;49.524;10.964;2022-10-16T13:59:20;28.20;99.90
18335;DHT22;9293;49.524;10.964;2022-10-16T14:01:49;28.30;99.90
18335;DHT22;9293;49.524;10.964;2022-10-16T14:04:19;28.70;99.90
18335;DHT22;9293;49.524;10.964;2022-10-16T14:06:50;29.50;99.90
18335;DHT22;9293;49.524;10.964;2022-10-16T14:09:23;30.10;99.90
18335;DHT22;9293;49.524;10.964;2022-10-16T14:12:02;30.40;99.90
18335;DHT22;9293;49.524;10.964;2022-10-16T14:14:46;31.00;99.90
18335;DHT22;9293;49.524;10.964;2022-10-16T14:17:26;31.70;99.90
18335;DHT22;9293;49.524;10.964;2022-10-16T14:19:57;32.00;99.90
18335;DHT22;9293;49.524;10.964;2022-10-16T14:22:39;32.10;99.90
18335;DHT22;9293;49.524;10.964;2022-10-16T14:30:30;32.30;99.90
18335;DHT22;9293;49.524;10.964;2022-10-16T14:33:18;31.90;99.90
18335;DHT22;9293;49.524;10.964;2022-10-16T14:38:27;30.60;99.90
18335;DHT22;9293;49.524;10.964;2022-10-16T14:40:57;29.70;99.90
18335;DHT22;9293;49.524;10.964;2022-10-16T14:43:44;28.70;99.90
18335;DHT22;9293;49.524;10.964;2022-10-16T14:46:31;27.70;99.90
18335;DHT22;9293;49.524;10.964;2022-10-16T14:49:13;26.70;99.90
18335;DHT22;9293;49.524;10.964;2022-10-16T14:51:43;25.80;99.90
18335;DHT22;9293;49.524;10.964;2022-10-16T14:54:16;25.00;99.90
18335;DHT22;9293;49.524;10.964;2022-10-16T14:56:50;24.30;99.90
18335;DHT22;9293;49.524;10.964;2022-10-16T14:59:30;23.40;99.90
18335;DHT22;9293;49.524;10.964;2022-10-16T15:02:00;22.80;99.90
18335;DHT22;9293;49.524;10.964;2022-10-16T15:04:28;22.50;99.90
18335;DHT22;9293;49.524;10.964;2022-10-16T15:06:56;22.20;99.90
18335;DHT22;9293;49.524;10.964;2022-10-16T15:09:24;22.00;99.90
18335;DHT22;9293;49.524;10.964;2022-10-16T15:11:52;21.90;99.90
18335;DHT22;9293;49.524;10.964;2022-10-16T15:14:20;21.70;99.90
18335;DHT22;9293;49.524;10.964;2022-10-16T15:16:48;21.50;99.90
18335;DHT22;9293;49.524;10.964;2022-10-16T15:19:16;21.30;99.90
18335;DHT22;9293;49.524;10.964;2022-10-16T15:21:44;21.00;99.90
18335;DHT22;9293;49.524;10.964;2022-10-16T15:24:13;20.70;99.90
18335;DHT22;9293;49.524;10.964;2022-10-16T15:26:48;20.50;99.90
18335;DHT22;9293;49.524;10.964;2022-10-16T15:29:17;20.60;99.90
18335;DHT22;9293;49.524;10.964;2022-10-16T15:31:45;20.60;99.90
18335;DHT22;9293;49.524;10.964;2022-10-16T15:34:15;20.30;99.90
18335;DHT22;9293;49.524;10.964;2022-10-16T15:36:42;20.10;99.90
18335;DHT22;9293;49.524;10.964;2022-10-16T15:39:16;20.10;99.90
18335;DHT22;9293;49.524;10.964;2022-10-16T15:41:46;20.00;99.90
18335;DHT22;9293;49.524;10.964;2022-10-16T15:44:19;19.90;99.90
18335;DHT22;9293;49.524;10.964;2022-10-16T15:46:47;19.80;99.90
18335;DHT22;9293;49.524;10.964;2022-10-16T15:49:15;19.80;99.90
18335;DHT22;9293;49.524;10.964;2022-10-16T15:51:43;19.90;99.90
18335;DHT22;9293;49.524;10.964;2022-10-16T15:54:12;19.80;99.90
18335;DHT22;9293;49.524;10.964;2022-10-16T15:56:40;19.80;99.90
18335;DHT22;9293;49.524;10.964;2022-10-16T15:59:07;19.60;99.90
18335;DHT22;9293;49.524;10.964;2022-10-16T16:01:36;19.50;99.90
18335;DHT22;9293;49.524;10.964;2022-10-16T16:04:04;19.50;99.90
18335;DHT22;9293;49.524;10.964;2022-10-16T16:06:45;19.50;99.90
18335;DHT22;9293;49.524;10.964;2022-10-16T16:09:14;19.40;99.90
18335;DHT22;9293;49.524;10.964;2022-10-16T16:11:42;19.30;99.90
18335;DHT22;9293;49.524;10.964;2022-10-16T16:14:12;19.20;99.90
18335;DHT22;9293;49.524;10.964;2022-10-16T16:16:41;19.30;99.90
18335;DHT22;9293;49.524;10.964;2022-10-16T16:19:10;19.30;99.90
18335;DHT22;9293;49.524;10.964;2022-10-16T16:21:38;19.20;99.90
18335;DHT22;9293;49.524;10.964;2022-10-16T16:24:07;19.20;99.90
18335;DHT22;9293;49.524;10.964;2022-10-16T16:26:36;19.20;99.90
18335;DHT22;9293;49.524;10.964;2022-10-16T16:29:08;19.10;99.90
18335;DHT22;9293;49.524;10.964;2022-10-16T16:31:39;19.00;99.90
18335;DHT22;9293;49.524;10.964;2022-10-16T16:34:11;19.00;99.90
18335;DHT22;9293;49.524;10.964;2022-10-16T16:36:40;19.00;99.90
18335;DHT22;9293;49.524;10.964;2022-10-16T16:39:08;18.90;99.90
18335;DHT22;9293;49.524;10.964;2022-10-16T16:41:36;18.80;99.90
18335;DHT22;9293;49.524;10.964;2022-10-16T16:44:06;18.70;99.90
18335;DHT22;9293;49.524;10.964;2022-10-16T16:46:35;18.60;99.90
18335;DHT22;9293;49.524;10.964;2022-10-16T16:49:03;18.50;99.90
18335;DHT22;9293;49.524;10.964;2022-10-16T16:51:32;18.50;99.90
18335;DHT22;9293;49.524;10.964;2022-10-16T16:54:05;18.40;99.90
18335;DHT22;9293;49.524;10.964;2022-10-16T16:56:35;18.30;99.90
18335;DHT22;9293;49.524;10.964;2022-10-16T16:59:03;18.40;99.90
18335;DHT22;9293;49.524;10.964;2022-10-16T17:01:31;18.40;99.90
18335;DHT22;9293;49.524;10.964;2022-10-16T17:03:59;18.30;99.90
18335;DHT22;9293;49.524;10.964;2022-10-16T17:06:29;18.40;99.90
18335;DHT22;9293;49.524;10.964;2022-10-16T17:08:58;18.40;99.90
18335;DHT22;9293;49.524;10.964;2022-10-16T17:11:27;18.40;99.90
18335;DHT22;9293;49.524;10.964;2022-10-16T17:13:56;18.20;99.90
18335;DHT22;9293;49.524;10.964;2022-10-16T17:16:27;18.30;99.90
18335;DHT22;9293;49.524;10.964;2022-10-16T17:18:59;18.20;99.90
18335;DHT22;9293;49.524;10.964;2022-10-16T17:21:30;18.20;99.90
18335;DHT22;9293;49.524;10.964;2022-10-16T17:23:59;18.30;99.90
18335;DHT22;9293;49.524;10.964;2022-10-16T17:26:28;18.20;99.90
18335;DHT22;9293;49.524;10.964;2022-10-16T17:28:58;18.20;99.90
18335;DHT22;9293;49.524;10.964;2022-10-16T17:31:29;18.20;99.90
18335;DHT22;9293;49.524;10.964;2022-10-16T17:33:58;18.20;99.90
18335;DHT22;9293;49.524;10.964;2022-10-16T17:36:27;18.20;99.90
18335;DHT22;9293;49.524;10.964;2022-10-16T17:39:10;18.20;99.90
18335;DHT22;9293;49.524;10.964;2022-10-16T17:41:39;18.20;99.90
18335;DHT22;9293;49.524;10.964;2022-10-16T17:44:07;18.20;99.90
18335;DHT22;9293;49.524;10.964;2022-10-16T17:46:35;18.20;99.90
18335;DHT22;9293;49.524;10.964;2022-10-16T17:49:06;18.20;99.90
18335;DHT22;9293;49.524;10.964;2022-10-16T17:51:36;18.10;99.90
18335;DHT22;9293;49.524;10.964;2022-10-16T17:54:04;18.00;99.90
18335;DHT22;9293;49.524;10.964;2022-10-16T17:56:33;18.10;99.90
18335;DHT22;9293;49.524;10.964;2022-10-16T17:59:02;18.00;99.90
18335;DHT22;9293;49.524;10.964;2022-10-16T18:01:32;17.90;99.90
18335;DHT22;9293;49.524;10.964;2022-10-16T18:04:04;17.90;99.90
18335;DHT22;9293;49.524;10.964;2022-10-16T18:06:34;17.90;99.90